createdAt,value
2019-03-01T00:01:18.959Z,21.50
2019-03-01T00:04:10.170Z,21.43
2019-03-01T00:06:44.592Z,21.30
2019-03-01T00:09:49.119Z,20.30
2019-03-01T00:12:54.278Z,19.90
2019-03-01T00:16:02.834Z,17.27
2019-03-01T00:19:25.838Z,17.10
2019-03-01T00:22:24.629Z,14.17
2019-03-01T00:25:15.085Z,15.67
2019-03-01T00:28:09.925Z,15.50
2019-03-01T00:31:20.792Z,15.30
2019-03-01T00:34:21.734Z,14.50
2019-03-01T00:37:34.253Z,12.67
2019-03-01T00:40:57.001Z,11.20
2019-03-01T00:44:29.894Z,14.60
2019-03-01T00:47:00.622Z,14.17
2019-03-01T00:49:33.130Z,11.30
2019-03-01T00:52:03.830Z,11.93
2019-03-01T00:54:34.371Z,14.10
2019-03-01T00:57:05.102Z,13.23
2019-03-01T00:59:35.419Z,10.60
2019-03-01T01:02:06.059Z,9.33
2019-03-01T01:04:36.760Z,8.70
2019-03-01T01:07:07.299Z,11.23
2019-03-01T01:09:37.693Z,11.23
2019-03-01T01:12:08.158Z,9.27
2019-03-01T01:14:38.802Z,10.20
2019-03-01T01:17:09.302Z,12.03
2019-03-01T01:19:40.094Z,11.00
2019-03-01T01:22:11.181Z,9.30
2019-03-01T01:24:41.583Z,8.83
2019-03-01T01:27:12.122Z,10.00
2019-03-01T01:29:42.565Z,9.87
2019-03-01T01:32:13.017Z,8.60
2019-03-01T01:34:43.448Z,8.87
2019-03-01T01:37:13.855Z,8.97
2019-03-01T01:39:44.161Z,10.47
2019-03-01T01:42:14.755Z,11.40
2019-03-01T01:44:45.235Z,10.03
2019-03-01T01:47:15.778Z,11.07
2019-03-01T01:49:46.274Z,12.97
2019-03-01T01:52:16.718Z,12.63
2019-03-01T01:54:47.070Z,9.90
2019-03-01T01:57:17.457Z,11.63
2019-03-01T01:59:48.097Z,9.70
2019-03-01T02:02:18.633Z,10.53
2019-03-01T02:04:48.940Z,13.23
2019-03-01T02:07:19.347Z,9.77
2019-03-01T02:09:49.885Z,10.70
2019-03-01T02:12:20.459Z,10.93
2019-03-01T02:14:51.049Z,12.37
2019-03-01T02:17:21.739Z,12.80
2019-03-01T02:19:52.093Z,11.17
2019-03-01T02:22:22.754Z,11.93
2019-03-01T02:24:53.271Z,12.63
2019-03-01T02:27:33.115Z,11.77
2019-03-01T02:30:04.492Z,13.00
2019-03-01T02:32:37.991Z,12.70
2019-03-01T02:35:10.411Z,12.00
2019-03-01T02:37:40.845Z,12.53
2019-03-01T02:40:12.285Z,12.20
2019-03-01T02:42:42.756Z,9.67
2019-03-01T02:45:15.483Z,8.63
2019-03-01T02:47:45.809Z,7.90
2019-03-01T02:50:18.293Z,6.67
2019-03-01T02:52:48.834Z,6.67
2019-03-01T02:55:19.930Z,5.47
2019-03-01T02:57:50.479Z,6.43
2019-03-01T03:00:25.732Z,4.67
2019-03-01T03:02:56.368Z,4.90
2019-03-01T03:05:26.986Z,5.03
2019-03-01T03:07:59.578Z,5.47
2019-03-01T03:10:30.254Z,5.17
2019-03-01T03:13:03.231Z,3.80
2019-03-01T03:15:36.334Z,6.23
2019-03-01T03:18:07.456Z,6.10
2019-03-01T03:20:37.897Z,6.27
2019-03-01T03:23:08.459Z,6.60
2019-03-01T03:28:43.316Z,6.17
2019-03-01T03:31:13.940Z,7.87
2019-03-01T03:33:44.403Z,7.83
2019-03-01T03:36:14.826Z,6.30
2019-03-01T03:38:45.134Z,7.60
2019-03-01T03:41:15.681Z,6.83
2019-03-01T03:43:46.138Z,9.13
2019-03-01T03:46:16.573Z,7.13
2019-03-01T03:48:46.935Z,8.70
2019-03-01T03:51:17.292Z,10.20
2019-03-01T03:53:47.748Z,10.80
2019-03-01T03:56:18.122Z,11.80
2019-03-01T03:58:48.473Z,11.60
2019-03-01T04:07:22.603Z,9.30
2019-03-01T04:09:53.172Z,8.33
2019-03-01T04:12:23.674Z,7.73
2019-03-01T04:14:54.316Z,9.07
2019-03-01T04:17:24.694Z,8.20
2019-03-01T04:19:55.148Z,7.20
2019-03-01T04:22:25.574Z,9.63
2019-03-01T04:24:55.881Z,5.87
2019-03-01T04:27:26.362Z,11.10
2019-03-01T04:29:56.663Z,11.80
2019-03-01T04:32:27.166Z,14.53
2019-03-01T04:34:57.826Z,11.90
2019-03-01T04:37:28.227Z,14.13
2019-03-01T04:39:58.694Z,13.50
2019-03-01T04:42:29.111Z,11.90
2019-03-01T04:44:59.414Z,16.70
2019-03-01T04:47:29.739Z,19.13
2019-03-01T04:50:00.300Z,24.97
2019-03-01T04:52:36.142Z,22.60
2019-03-01T04:55:17.347Z,16.60
2019-03-01T04:57:48.008Z,17.23
2019-03-01T05:00:20.055Z,14.70
2019-03-01T05:02:50.503Z,12.60
2019-03-01T05:05:21.478Z,15.40
2019-03-01T05:07:52.493Z,16.17
2019-03-01T05:10:22.992Z,19.70
2019-03-01T05:12:53.435Z,16.90
2019-03-01T05:15:24.600Z,16.50
2019-03-01T05:17:55.187Z,15.90
2019-03-01T05:20:25.678Z,43.40
2019-03-01T05:22:56.109Z,46.60
2019-03-01T05:25:26.006Z,16.27
2019-03-01T05:27:56.107Z,22.60
2019-03-01T05:30:26.287Z,26.33
2019-03-01T05:32:56.483Z,24.80
2019-03-01T05:35:26.484Z,26.47
2019-03-01T05:37:56.486Z,59.40
2019-03-01T05:40:26.803Z,15.30
2019-03-01T05:42:57.026Z,156.50
2019-03-01T05:45:27.453Z,25.03
2019-03-01T05:47:57.447Z,31.13
2019-03-01T05:50:27.668Z,26.63
2019-03-01T05:52:57.859Z,29.47
2019-03-01T05:55:27.873Z,33.30
2019-03-01T05:58:43.668Z,38.30
2019-03-01T06:01:24.575Z,31.03
2019-03-01T06:04:10.102Z,46.83
2019-03-01T06:07:21.073Z,26.60
2019-03-01T06:10:18.190Z,34.60
2019-03-01T06:13:20.738Z,30.43
2019-03-01T06:16:22.609Z,19.53
2019-03-01T06:19:38.845Z,21.67
2019-03-01T06:23:13.569Z,26.70
2019-03-01T06:25:59.298Z,21.23
2019-03-01T06:29:25.401Z,39.33
2019-03-01T06:32:35.257Z,24.90
2019-03-01T06:35:45.024Z,28.00
2019-03-01T06:39:23.749Z,30.83
2019-03-01T06:42:09.966Z,36.97
2019-03-01T06:45:11.635Z,33.13
2019-03-01T06:47:49.343Z,36.63
2019-03-01T06:50:38.300Z,32.47
2019-03-01T06:53:08.492Z,38.33
2019-03-01T06:55:43.867Z,25.63
2019-03-01T06:58:17.230Z,24.67
2019-03-01T07:00:50.641Z,17.67
2019-03-01T07:03:21.033Z,23.30
2019-03-01T07:05:50.948Z,31.33
2019-03-01T07:08:21.275Z,27.67
2019-03-01T07:10:51.614Z,32.60
2019-03-01T07:13:21.802Z,36.70
2019-03-01T07:15:52.017Z,32.00
2019-03-01T07:18:22.134Z,26.40
2019-03-01T07:20:52.341Z,35.93
2019-03-01T07:23:22.563Z,30.80
2019-03-01T07:25:54.689Z,30.63
2019-03-01T07:28:24.210Z,32.10
2019-03-01T07:30:54.415Z,34.07
2019-03-01T07:33:24.509Z,30.80
2019-03-01T07:35:54.722Z,34.80
2019-03-01T07:38:24.894Z,34.10
2019-03-01T07:40:54.874Z,34.87
2019-03-01T07:43:24.843Z,32.53
2019-03-01T07:45:55.035Z,34.03
2019-03-01T07:48:25.281Z,29.73
2019-03-01T07:50:56.048Z,23.10
2019-03-01T07:53:26.395Z,23.27
2019-03-01T07:55:56.604Z,23.53
2019-03-01T07:58:26.919Z,23.57
2019-03-01T08:00:56.898Z,21.60
2019-03-01T08:03:26.912Z,17.77
2019-03-01T08:05:57.119Z,22.97
2019-03-01T08:08:27.816Z,19.50
2019-03-01T08:11:00.052Z,17.67
2019-03-01T08:13:29.866Z,16.97
2019-03-01T08:15:59.985Z,16.70
2019-03-01T08:18:29.992Z,13.63
2019-03-01T08:21:00.189Z,15.63
2019-03-01T08:23:31.753Z,16.17
2019-03-01T08:26:03.437Z,16.67
2019-03-01T08:28:33.714Z,13.37
2019-03-01T08:31:04.615Z,14.53
2019-03-01T08:33:35.131Z,12.30
2019-03-01T08:36:05.840Z,14.97
2019-03-01T08:38:37.048Z,15.40
2019-03-01T08:41:07.220Z,14.03
2019-03-01T08:43:37.436Z,15.40
2019-03-01T08:46:09.614Z,14.83
2019-03-01T08:48:39.206Z,13.50
2019-03-01T08:51:10.516Z,17.07
2019-03-01T08:53:40.721Z,18.20
2019-03-01T08:56:14.357Z,20.83
2019-03-01T08:58:42.988Z,20.87
2019-03-01T09:01:14.204Z,22.50
2019-03-01T09:03:54.894Z,22.13
2019-03-01T09:06:24.945Z,21.87
2019-03-01T09:08:55.079Z,23.20
2019-03-01T09:11:25.389Z,20.63
2019-03-01T09:13:55.596Z,20.97
2019-03-01T09:16:25.694Z,19.77
2019-03-01T09:18:55.794Z,20.50
2019-03-01T09:21:25.998Z,18.20
2019-03-01T09:23:56.196Z,15.87
2019-03-01T09:26:26.533Z,16.70
2019-03-01T09:28:56.630Z,15.27
2019-03-01T09:31:26.819Z,13.40
2019-03-01T09:33:57.424Z,15.00
2019-03-01T09:36:40.617Z,14.97
2019-03-01T09:39:14.521Z,13.60
2019-03-01T09:41:43.149Z,12.07
2019-03-01T09:44:13.070Z,13.00
2019-03-01T09:46:43.276Z,8.17
2019-03-01T09:49:13.470Z,18.60
2019-03-01T09:51:47.440Z,18.83
2019-03-01T09:54:15.192Z,17.77
2019-03-01T09:56:45.406Z,28.40
2019-03-01T09:59:15.641Z,33.10
2019-03-01T10:01:45.746Z,27.33
2019-03-01T10:04:15.805Z,33.73
2019-03-01T10:06:46.030Z,20.20
2019-03-01T10:09:16.414Z,18.40
2019-03-01T10:11:46.546Z,16.93
2019-03-01T10:14:17.167Z,15.60
2019-03-01T10:16:47.181Z,15.37
2019-03-01T10:19:17.071Z,18.57
2019-03-01T10:21:47.266Z,17.13
2019-03-01T10:24:17.452Z,16.20
2019-03-01T10:26:47.583Z,18.13
2019-03-01T10:29:19.556Z,18.43
2019-03-01T10:31:50.227Z,15.43
2019-03-01T10:34:20.552Z,16.83
2019-03-01T10:36:51.077Z,16.20
2019-03-01T10:39:21.771Z,17.60
2019-03-01T10:41:52.184Z,14.43
2019-03-01T10:44:22.565Z,16.57
2019-03-01T10:46:53.090Z,15.70
2019-03-01T10:49:23.459Z,12.80
2019-03-01T10:51:54.073Z,14.20
2019-03-01T10:54:24.486Z,13.20
2019-03-01T10:56:54.911Z,14.37
2019-03-01T10:59:25.237Z,15.60
2019-03-01T11:01:55.655Z,14.20
2019-03-01T11:04:25.981Z,14.40
2019-03-01T11:06:57.909Z,12.97
2019-03-01T11:09:28.933Z,15.87
2019-03-01T11:11:59.123Z,13.30
2019-03-01T11:14:29.469Z,17.17
2019-03-01T11:16:59.801Z,14.73
2019-03-01T11:19:29.983Z,13.67
2019-03-01T11:22:00.484Z,15.30
2019-03-01T11:24:30.925Z,12.20
2019-03-01T11:27:01.558Z,13.10
2019-03-01T11:29:32.275Z,15.27
2019-03-01T11:32:02.948Z,11.67
2019-03-01T11:34:33.448Z,11.63
2019-03-01T11:37:03.766Z,27.20
2019-03-01T11:39:34.226Z,15.00
2019-03-01T11:42:04.826Z,18.00
2019-03-01T11:44:35.246Z,17.20
2019-03-01T11:47:05.761Z,16.17
2019-03-01T11:49:36.140Z,17.40
2019-03-01T11:52:06.613Z,19.23
2019-03-01T11:54:37.043Z,17.20
2019-03-01T11:57:07.498Z,16.20
2019-03-01T11:59:37.822Z,14.10
2019-03-01T12:02:08.454Z,15.00
2019-03-01T12:04:38.802Z,12.70
2019-03-01T12:07:08.873Z,12.50
2019-03-01T12:09:40.047Z,11.93
2019-03-01T12:12:10.685Z,11.77
2019-03-01T12:14:41.010Z,8.63
2019-03-01T12:17:11.517Z,8.03
2019-03-01T12:19:41.933Z,9.10
2019-03-01T12:22:19.553Z,9.30
2019-03-01T12:24:50.249Z,8.20
2019-03-01T12:27:20.798Z,8.80
2019-03-01T12:29:51.467Z,7.80
2019-03-01T12:32:22.030Z,8.10
2019-03-01T12:34:52.299Z,8.13
2019-03-01T12:37:22.747Z,7.00
2019-03-01T12:39:53.122Z,3.87
2019-03-01T12:42:23.014Z,4.70
2019-03-01T12:44:53.046Z,4.53
2019-03-01T12:47:23.587Z,4.07
2019-03-01T12:49:54.240Z,4.93
2019-03-01T12:52:24.463Z,4.70
2019-03-01T12:54:54.960Z,4.60
2019-03-01T12:57:25.597Z,6.40
2019-03-01T12:59:56.022Z,5.90
2019-03-01T13:02:26.266Z,6.70
2019-03-01T13:04:56.980Z,6.77
2019-03-01T13:07:27.323Z,7.30
2019-03-01T13:09:58.896Z,5.20
2019-03-01T13:12:29.407Z,5.53
2019-03-01T13:14:59.605Z,5.63
2019-03-01T13:17:29.861Z,5.70
2019-03-01T13:20:01.188Z,5.40
2019-03-01T13:22:32.742Z,6.30
2019-03-01T13:25:02.950Z,6.50
2019-03-01T13:27:32.948Z,6.40
2019-03-01T13:30:03.023Z,7.03
2019-03-01T13:32:33.192Z,7.30
2019-03-01T13:35:03.616Z,7.10
2019-03-01T13:37:33.796Z,6.33
2019-03-01T13:40:03.991Z,6.33
2019-03-01T13:42:34.004Z,5.80
2019-03-01T13:45:04.277Z,6.90
2019-03-01T13:47:34.507Z,7.97
2019-03-01T13:50:06.698Z,6.63
2019-03-01T13:52:36.429Z,4.70
2019-03-01T13:55:06.955Z,5.30
2019-03-01T13:57:37.376Z,5.40
2019-03-01T14:00:08.656Z,7.30
2019-03-01T14:02:38.844Z,6.87
2019-03-01T14:05:13.237Z,7.40
2019-03-01T14:07:42.379Z,8.60
2019-03-01T14:10:14.653Z,8.70
2019-03-01T14:12:45.134Z,8.63
2019-03-01T14:15:16.743Z,9.93
2019-03-01T14:17:47.461Z,9.00
2019-03-01T14:20:21.122Z,7.93
2019-03-01T14:22:51.333Z,11.40
2019-03-01T14:25:21.704Z,8.97
2019-03-01T14:27:52.946Z,9.30
2019-03-01T14:30:25.365Z,10.93
2019-03-01T14:32:57.685Z,11.80
2019-03-01T14:35:28.285Z,17.00
2019-03-01T14:37:58.827Z,9.40
2019-03-01T14:40:29.253Z,11.67
2019-03-01T14:42:59.754Z,15.00
2019-03-01T14:45:30.244Z,17.77
2019-03-01T14:48:00.620Z,25.53
2019-03-01T14:50:33.852Z,15.27
2019-03-01T14:53:03.415Z,10.20
2019-03-01T14:55:36.743Z,14.90
2019-03-01T14:58:32.376Z,9.13
2019-03-01T15:01:26.794Z,10.60
2019-03-01T15:03:57.656Z,10.30
2019-03-01T15:06:28.005Z,19.47
2019-03-01T15:08:58.388Z,16.37
2019-03-01T15:11:28.915Z,10.90
2019-03-01T15:13:59.642Z,10.07
2019-03-01T15:16:29.928Z,10.07
2019-03-01T15:19:00.178Z,10.40
2019-03-01T15:21:30.336Z,8.93
2019-03-01T15:24:01.480Z,9.57
2019-03-01T15:26:32.917Z,14.93
2019-03-01T15:29:03.119Z,13.57
2019-03-01T15:31:33.271Z,19.47
2019-03-01T15:34:03.496Z,51.40
2019-03-01T15:36:33.684Z,24.90
2019-03-01T15:39:05.381Z,20.90
2019-03-01T15:41:35.598Z,14.20
2019-03-01T15:44:05.748Z,15.77
2019-03-01T15:46:35.768Z,25.43
2019-03-01T15:49:06.016Z,32.53
2019-03-01T15:51:38.209Z,30.67
2019-03-01T15:54:08.041Z,23.07
2019-03-01T15:56:39.554Z,22.50
2019-03-01T15:59:10.449Z,31.87
2019-03-01T16:01:43.706Z,19.33
2019-03-01T16:04:12.486Z,12.73
2019-03-01T16:06:42.500Z,12.60
2019-03-01T16:09:21.730Z,14.30
2019-03-01T16:11:53.211Z,15.47
2019-03-01T16:14:24.157Z,14.00
2019-03-01T16:16:55.406Z,14.57
2019-03-01T16:19:25.478Z,17.20
2019-03-01T16:21:55.500Z,12.03
2019-03-01T16:24:25.712Z,20.67
2019-03-01T16:26:55.910Z,13.90
2019-03-01T16:29:26.023Z,17.23
2019-03-01T16:31:56.043Z,18.30
2019-03-01T16:34:26.326Z,12.43
2019-03-01T16:36:58.828Z,16.27
2019-03-01T16:39:28.935Z,13.53
2019-03-01T16:41:59.058Z,13.40
2019-03-01T16:44:29.253Z,20.63
2019-03-01T16:46:59.438Z,13.23
2019-03-01T16:49:29.359Z,12.87
2019-03-01T16:51:59.471Z,13.00
2019-03-01T16:54:30.175Z,14.57
2019-03-01T16:57:00.212Z,21.30
2019-03-01T16:59:30.565Z,21.03
2019-03-01T17:02:06.179Z,19.77
2019-03-01T17:04:32.495Z,16.93
2019-03-01T17:07:04.437Z,26.70
2019-03-01T17:09:34.420Z,21.37
2019-03-01T17:12:04.609Z,24.37
2019-03-01T17:14:38.441Z,25.10
2019-03-01T17:17:07.165Z,17.70
2019-03-01T17:19:37.401Z,15.77
2019-03-01T17:22:07.730Z,10.30
2019-03-01T17:24:37.735Z,11.00
2019-03-01T17:27:07.800Z,10.60
2019-03-01T17:29:39.040Z,8.70
2019-03-01T17:32:09.899Z,8.07
2019-03-01T17:34:39.916Z,13.10
2019-03-01T17:37:10.133Z,12.60
2019-03-01T17:39:40.172Z,17.10
2019-03-01T17:42:10.125Z,17.23
2019-03-01T17:44:41.408Z,18.40
2019-03-01T17:47:12.268Z,19.20
2019-03-01T17:49:42.303Z,12.67
2019-03-01T17:52:13.721Z,14.50
2019-03-01T17:54:44.011Z,21.07
2019-03-01T17:57:14.206Z,27.37
2019-03-01T17:59:44.697Z,18.50
2019-03-01T18:02:15.861Z,18.27
2019-03-01T18:04:46.152Z,15.23
2019-03-01T18:07:16.342Z,18.50
2019-03-01T18:09:46.277Z,19.73
2019-03-01T18:12:17.497Z,22.60
2019-03-01T18:14:48.451Z,31.13
2019-03-01T18:17:18.473Z,38.23
2019-03-01T18:19:48.674Z,38.87
2019-03-01T18:22:18.881Z,45.03
2019-03-01T18:24:49.964Z,37.07
2019-03-01T18:27:20.692Z,38.27
2019-03-01T18:29:50.899Z,38.93
2019-03-01T18:32:21.094Z,34.60
2019-03-01T18:34:50.984Z,34.30
2019-03-01T18:37:20.903Z,31.70
2019-03-01T18:39:51.172Z,40.10
2019-03-01T18:42:21.379Z,26.80
2019-03-01T18:44:51.368Z,28.97
2019-03-01T18:47:21.295Z,36.43
2019-03-01T18:49:55.202Z,34.70
2019-03-01T18:52:23.454Z,31.47
2019-03-01T18:54:53.403Z,43.23
2019-03-01T18:57:23.620Z,42.93
2019-03-01T18:59:56.438Z,41.40
2019-03-01T19:02:27.643Z,46.60
2019-03-01T19:04:57.078Z,45.90
2019-03-01T19:07:28.435Z,40.83
2019-03-01T19:09:58.688Z,40.97
2019-03-01T19:12:28.724Z,42.47
2019-03-01T19:14:59.342Z,38.00
2019-03-01T19:17:29.659Z,41.07
2019-03-01T19:20:02.068Z,43.97
2019-03-01T19:22:31.326Z,48.93
2019-03-01T19:25:01.527Z,43.17
2019-03-01T19:27:31.719Z,49.10
2019-03-01T19:30:01.631Z,46.70
2019-03-01T19:32:31.655Z,30.27
2019-03-01T19:35:01.852Z,33.60
2019-03-01T19:37:32.066Z,29.93
2019-03-01T19:40:01.997Z,24.67
2019-03-01T19:42:33.135Z,34.20
2019-03-01T19:45:04.929Z,27.93
2019-03-01T19:47:35.847Z,38.03
2019-03-01T19:50:06.455Z,43.77
2019-03-01T19:52:36.379Z,41.33
2019-03-01T19:55:08.043Z,42.03
2019-03-01T19:57:39.172Z,37.77
2019-03-01T20:00:12.446Z,31.80
2019-03-01T20:02:42.561Z,29.13
2019-03-01T20:05:15.440Z,33.20
2019-03-01T20:07:45.784Z,46.70
2019-03-01T20:10:16.931Z,31.97
2019-03-01T20:12:47.080Z,25.90
2019-03-01T20:15:20.656Z,25.30
2019-03-01T20:17:50.941Z,26.07
2019-03-01T20:20:21.837Z,24.33
2019-03-01T20:22:54.092Z,26.10
2019-03-01T20:25:23.865Z,28.87
2019-03-01T20:27:53.900Z,49.33
2019-03-01T20:30:28.723Z,37.20
2019-03-01T20:32:56.790Z,34.50
2019-03-01T20:35:26.968Z,39.50
2019-03-01T20:38:00.278Z,32.10
2019-03-01T20:40:29.490Z,27.10
2019-03-01T20:43:04.693Z,26.03
2019-03-01T20:45:31.604Z,21.10
2019-03-01T20:48:01.631Z,19.30
2019-03-01T20:50:31.902Z,15.63
2019-03-01T20:53:02.093Z,18.20
2019-03-01T20:55:33.243Z,27.70
2019-03-01T20:58:04.350Z,29.47
2019-03-01T21:00:34.490Z,23.60
2019-03-01T21:03:04.493Z,31.50
2019-03-01T21:05:34.724Z,31.10
2019-03-01T21:08:04.921Z,32.07
2019-03-01T21:10:35.009Z,31.27
2019-03-01T21:13:05.046Z,28.77
2019-03-01T21:15:37.674Z,34.90
2019-03-01T21:18:07.685Z,35.83
2019-03-01T21:20:37.647Z,37.47
2019-03-01T21:23:07.814Z,42.97
2019-03-01T21:25:39.747Z,39.13
2019-03-01T21:28:10.013Z,35.30
2019-03-01T21:30:40.013Z,45.30
2019-03-01T21:33:09.914Z,28.33
2019-03-01T21:35:40.100Z,23.40
2019-03-01T21:38:13.941Z,23.20
2019-03-01T21:40:43.138Z,23.73
2019-03-01T21:43:13.331Z,18.63
2019-03-01T21:45:43.365Z,19.10
2019-03-01T21:48:13.396Z,17.23
2019-03-01T21:50:43.642Z,17.30
2019-03-01T21:53:13.891Z,15.77
2019-03-01T21:55:43.904Z,16.40
2019-03-01T21:58:13.793Z,21.00
2019-03-01T22:00:43.998Z,15.53
2019-03-01T22:03:14.597Z,14.13
2019-03-01T22:05:45.400Z,18.37
2019-03-01T22:08:16.109Z,17.10
2019-03-01T22:10:46.319Z,19.87
2019-03-01T22:13:16.531Z,22.03
2019-03-01T22:15:47.061Z,19.10
2019-03-01T22:18:20.381Z,17.67
2019-03-01T22:20:49.151Z,22.27
2019-03-01T22:23:19.390Z,20.13
2019-03-01T22:25:49.589Z,23.03
2019-03-01T22:28:21.294Z,17.33
2019-03-01T22:30:51.434Z,22.77
2019-03-01T22:33:22.118Z,24.77
2019-03-01T22:35:52.682Z,22.17
2019-03-01T22:38:22.870Z,18.30
2019-03-01T22:40:52.872Z,17.40
2019-03-01T22:43:26.221Z,15.00
2019-03-01T22:45:54.758Z,12.87
2019-03-01T22:48:24.940Z,12.67
2019-03-01T22:50:54.834Z,11.80
2019-03-01T22:53:24.838Z,11.27
2019-03-01T22:55:55.021Z,10.00
2019-03-01T22:58:24.941Z,10.47
2019-03-01T23:01:32.697Z,11.13
2019-03-01T23:04:04.176Z,12.80
2019-03-01T23:06:34.293Z,12.43
2019-03-01T23:09:10.138Z,10.47
2019-03-01T23:11:38.759Z,13.20
2019-03-01T23:14:08.986Z,25.60
2019-03-01T23:16:39.038Z,30.40
2019-03-01T23:19:12.624Z,27.30
2019-03-01T23:21:41.386Z,29.40
2019-03-01T23:24:11.670Z,29.10
2019-03-01T23:26:41.889Z,27.40
2019-03-01T23:29:11.812Z,25.80
2019-03-01T23:31:42.079Z,24.60
2019-03-01T23:34:12.296Z,26.20
2019-03-01T23:36:42.417Z,24.63
2019-03-01T23:39:12.622Z,23.87
2019-03-01T23:41:43.517Z,21.40
2019-03-01T23:44:14.291Z,20.53
2019-03-01T23:46:44.500Z,19.40
2019-03-01T23:49:14.812Z,17.77
2019-03-01T23:51:45.412Z,15.53
2019-03-01T23:54:16.240Z,16.00
2019-03-01T23:56:46.483Z,13.93
2019-03-01T23:59:16.702Z,12.17
